Alexandria, LA

2:07 PM CDT on September 16, 2014 (GMT -0500)
Alexandria International | Change Station
CLOSE
Current Station
Airport
Location: Alexandria,
Elevation: 89 ft
Nearby Weather Stations

Elev 89 ft 31.33 °N, 92.56 °W | Updated 14 minutes ago

Partly Cloudy
Partly Cloudy
91 °F
Feels Like 100 °F
N
4
Wind Variable Wind from Variable

Today
High -- | Low -- °F
--% Chance of Precip.
Yesterday
High -- | Low -- °F
Precip. -- in
6:54 AM 7:14 PM
Last Quarter, 43% visible
Pressure 30.02 in
Visibility 10.0 miles
Clouds Scattered Clouds 3400 ft
Heat Index 100 °F
Dew Point 74 °F
Humidity 57%
Rainfall 0.00 in
Snow Depth Not available.
UV 7 out of 12
Pollen 9.90 out of 12
Air Quality Not available.
Flu Activity Not available.
METAR KAEX 161853Z VRB03KT 10SM SCT034 33/23 A3001 RMK AO2 SLP164 T03280233

More Conditions Fewer Conditions

Pressure 30.02 in
Visibility 10.0 miles
Clouds Scattered Clouds 3400 ft
Heat Index 100 °F
Dew Point 74 °F
Humidity 57%
Rainfall 0.00 in
Snow Depth Not available.
UV 7 out of 12
Pollen 9.90 out of 12
Air Quality Not available.
Flu Activity Not available.
METAR KAEX 161853Z VRB03KT 10SM SCT034 33/23 A3001 RMK AO2 SLP164 T03280233

More Conditions Fewer Conditions

10-Day Weather Forecast

Almanac

Astronomy

Sep. 16, 2014 Rise Set
Actual Time 6:54 AM CDT 7:14 PM CDT
Civil Twilight 6:30 AM CDT 7:38 PM CDT
Nautical Twilight 6:01 AM CDT 8:06 PM CDT
Astronomical Twilight 5:33 AM CDT 8:35 PM CDT
Moon 12:21 AM CDT 2:22 PM CDT
Length of Visible Light 13h 08m
Length of Day
12h 19m
Tomorrow will be 1m 53s shorter.
Last Quarter, 43% of the Moon is Illuminated
Today
Last Quarter
Sep 24
New
Oct 1
First Quarter
Oct 8
Full
Oct 15
Last Quarter

Today's Extremes

State Highs State Lows

Community

WunderPhotos

Upload Photos

1,753,860 photos uploaded!

WunderBlogs® & News

Nearby

Snow Depth

Station Depth Elevation
No new snow has been reported.

Earthquake Activity

City Distance Mag. Time & Date
No recent earthquake activity has been reported nearby.
Minimum magnitude displayed is 2.5.

Coastal Water Temperatures

Place Temperature
No Stations Reporting

Nearby Weather Stations